Etusivu
METAR-TAF:

METAR-TAF

Lentoasemat :

La Seu d’Urgell, Espanja

Leveyspiiri: 42-20-29N, Pituuspiiri: 001-24-17E, korkeus merenpinnasta: 802 m

METAR: puuttuu

Aika: 19:49 (18:49 UTC)

Sääennuste

Tämä raportti tehtiin 28 tuntia ja 49 minuuttia sitten, kello 14.00 UTC
Ennuste voimassa 11. päivästä klo 15 UTC - 12. päivään klo 15 UTC
Tuuli 4 kn eri suunnista
Näkyvyys 10 km tai enemmän
Hajanaisia pilviä 4000 ft:n korkeudessa
Todennäköisyys 40% :
Ajoittain
11. päivästä klo 19 UTC - 11. päivään klo 24 UTC
Tuuli 15 kn pohjoisesta puuskistuen 25 kn:hen
Tulossa
12. päivästä klo 09 UTC - 12. päivään klo 11 UTC
Tuuli 10 kn pohjoisen/luoteesta

TAF: LESU 111400Z 1115/1215 VRB04KT 9999 SCT040 TX10/1213Z TN03/1206Z PROB40 TEMPO 1119/1124 01015G25KT BECMG 1209/1211 34010KT

Säähavainnot ja -ennusteet yli 4000 lentoasemalta (METAR- ja TAF-raportit).

Käytössä olevat sääasemat on merkitty karttaan keltaisilla ja punaisilla pisteillä.

Aseta hiiri pisteen päälle nähdäksesi sääaseman nimen.

Klikkaa sitten nähdäksesi säähavainnot ja -ennusteet.

Kartan vaihtaminen: klikkaa mustalla rastilla varustettuja vihreitä pisteitä, niin voit zoomata sisään; viivalla varustettua vihreää pistettä, niin voit zoomata ulos tai vihreitä nuolia, niin pääset viereisille kartoille.


METAR-TAF: